TAF KVNY
KVNY 280541Z 2806/2906 VRB03KT P6SM SKC FM282200 15006KT P6SM SKC FM290300 VRB03KT P6SM SKC=
METAR KVNY
WC KVNY
WS KVNY
WV KVNY